createdAt,value
2023-05-14T00:00:26.933Z,9.5
2023-05-14T00:01:29.868Z,9.5
2023-05-14T00:02:33.060Z,9.5
2023-05-14T00:03:25.841Z,9.5
2023-05-14T00:04:25.978Z,9.4
2023-05-14T00:05:25.752Z,9.4
2023-05-14T00:06:25.744Z,9.4
2023-05-14T00:07:25.748Z,9.4
2023-05-14T00:08:25.775Z,9.4
2023-05-14T00:09:25.738Z,9.4
2023-05-14T00:10:25.825Z,9.3
2023-05-14T00:11:25.744Z,9.3
2023-05-14T00:12:25.743Z,9.3
2023-05-14T00:13:25.765Z,9.3
2023-05-14T00:14:25.741Z,9.2
2023-05-14T00:15:25.731Z,9.2
2023-05-14T00:16:25.816Z,9.2
2023-05-14T00:17:25.793Z,9.2
2023-05-14T00:18:25.788Z,9.2
2023-05-14T00:19:25.744Z,9.2
2023-05-14T00:20:25.863Z,9.1
2023-05-14T00:21:27.066Z,9.1
2023-05-14T00:22:30.046Z,9.1
2023-05-14T00:24:32.888Z,9.1
2023-05-14T00:25:25.742Z,9.1
2023-05-14T00:26:25.743Z,9.1
2023-05-14T00:27:25.741Z,9
2023-05-14T00:28:25.736Z,9
2023-05-14T00:29:25.746Z,9
2023-05-14T00:30:25.910Z,9
2023-05-14T00:31:25.813Z,9
2023-05-14T00:32:25.826Z,9
2023-05-14T00:33:25.749Z,9
2023-05-14T00:34:25.743Z,9
2023-05-14T00:35:25.754Z,9
2023-05-14T00:36:25.856Z,9
2023-05-14T00:37:25.743Z,9.1
2023-05-14T00:38:25.751Z,9
2023-05-14T00:39:25.742Z,9
2023-05-14T00:40:25.805Z,9
2023-05-14T00:41:25.747Z,9
2023-05-14T00:42:25.740Z,9
2023-05-14T00:43:27.230Z,9
2023-05-14T00:44:30.323Z,9
2023-05-14T00:45:33.434Z,9
2023-05-14T00:46:25.760Z,9
2023-05-14T00:47:25.782Z,9
2023-05-14T00:48:25.769Z,9
2023-05-14T00:49:25.746Z,9
2023-05-14T00:50:25.841Z,9
2023-05-14T00:51:25.748Z,9
2023-05-14T00:52:25.746Z,9
2023-05-14T00:53:25.769Z,9
2023-05-14T00:54:25.743Z,9
2023-05-14T00:55:25.744Z,9
2023-05-14T00:56:25.742Z,9
2023-05-14T00:57:25.923Z,8.9
2023-05-14T00:58:25.777Z,8.9
2023-05-14T00:59:25.756Z,8.9
2023-05-14T01:00:25.945Z,8.9
2023-05-14T01:01:25.806Z,8.9
2023-05-14T01:02:25.805Z,8.8
2023-05-14T01:03:25.788Z,8.8
2023-05-14T01:04:27.358Z,8.8
2023-05-14T01:05:30.370Z,8.8
2023-05-14T01:06:33.432Z,8.8
2023-05-14T01:07:25.742Z,8.8
2023-05-14T01:08:25.766Z,8.8
2023-05-14T01:09:25.757Z,8.7
2023-05-14T01:10:25.918Z,8.7
2023-05-14T01:11:25.748Z,8.7
2023-05-14T01:12:25.739Z,8.7
2023-05-14T01:13:25.755Z,8.6
2023-05-14T01:14:25.746Z,8.6
2023-05-14T01:15:25.769Z,8.6
2023-05-14T01:16:25.778Z,8.6
2023-05-14T01:17:25.778Z,8.5
2023-05-14T01:18:25.778Z,8.5
2023-05-14T01:19:25.738Z,8.5
2023-05-14T01:20:25.909Z,8.5
2023-05-14T01:21:25.744Z,8.5
2023-05-14T01:22:25.744Z,8.4
2023-05-14T01:23:25.756Z,8.4
2023-05-14T01:24:25.743Z,8.4
2023-05-14T01:25:27.372Z,8.4
2023-05-14T01:26:30.482Z,8.4
2023-05-14T01:27:33.119Z,8.4
2023-05-14T01:28:25.749Z,8.4
2023-05-14T01:29:25.744Z,8.4
2023-05-14T01:30:25.937Z,8.3
2023-05-14T01:31:25.753Z,8.3
2023-05-14T01:32:25.760Z,8.3
2023-05-14T01:33:25.743Z,8.3
2023-05-14T01:34:25.745Z,8.3
2023-05-14T01:35:25.768Z,8.3
2023-05-14T01:36:25.739Z,8.2
2023-05-14T01:37:25.742Z,8.2
2023-05-14T01:38:25.742Z,8.2
2023-05-14T01:39:25.745Z,8.2
2023-05-14T01:40:25.975Z,8.2
2023-05-14T01:41:25.747Z,8.2
2023-05-14T01:42:25.751Z,8.1
2023-05-14T01:43:25.790Z,8.1
2023-05-14T01:44:25.738Z,8.1
2023-05-14T01:45:25.756Z,8
2023-05-14T01:46:27.583Z,8
2023-05-14T01:47:30.582Z,8
2023-05-14T01:48:25.766Z,8
2023-05-14T01:49:25.746Z,8
2023-05-14T01:50:25.904Z,7.9
2023-05-14T01:51:25.736Z,7.9
2023-05-14T01:52:25.753Z,7.9
2023-05-14T01:53:25.775Z,7.9
2023-05-14T01:54:25.744Z,7.9
2023-05-14T01:55:25.752Z,7.9
2023-05-14T01:56:25.834Z,7.8
2023-05-14T01:57:25.740Z,7.8
2023-05-14T01:58:25.777Z,7.8
2023-05-14T01:59:25.739Z,7.8
2023-05-14T02:00:25.997Z,7.8
2023-05-14T02:01:25.764Z,7.8
2023-05-14T02:02:25.921Z,7.8
2023-05-14T02:03:25.770Z,7.7
2023-05-14T02:04:25.827Z,7.7
2023-05-14T02:05:25.746Z,7.7
2023-05-14T02:06:25.733Z,7.7
2023-05-14T02:07:27.533Z,7.7
2023-05-14T02:08:30.685Z,7.7
2023-05-14T02:09:25.747Z,7.7
2023-05-14T02:10:25.844Z,7.7
2023-05-14T02:11:25.739Z,7.7
2023-05-14T02:12:25.747Z,7.7
2023-05-14T02:13:25.735Z,7.6
2023-05-14T02:14:25.756Z,7.6
2023-05-14T02:15:25.745Z,7.6
2023-05-14T02:16:25.822Z,7.5
2023-05-14T02:17:25.760Z,7.5
2023-05-14T02:18:25.789Z,7.5
2023-05-14T02:19:25.821Z,7.5
2023-05-14T02:20:25.905Z,7.5
2023-05-14T02:21:25.740Z,7.4
2023-05-14T02:22:25.738Z,7.4
2023-05-14T02:23:34.440Z,7.4
2023-05-14T02:24:25.742Z,7.4
2023-05-14T02:25:25.739Z,7.4
2023-05-14T02:26:25.747Z,7.3
2023-05-14T02:27:25.744Z,7.3
2023-05-14T02:28:27.695Z,7.3
2023-05-14T02:29:30.774Z,7.3
2023-05-14T02:30:25.836Z,7.3
2023-05-14T02:31:25.773Z,7.3
2023-05-14T02:32:25.782Z,7.3
2023-05-14T02:33:25.792Z,7.2
2023-05-14T02:34:25.750Z,7.2
2023-05-14T02:35:25.752Z,7.2
2023-05-14T02:36:25.738Z,7.2
2023-05-14T02:37:25.739Z,7.2
2023-05-14T02:38:25.744Z,7.2
2023-05-14T02:39:25.743Z,7.2
2023-05-14T02:40:25.871Z,7.2
2023-05-14T02:41:25.743Z,7.2
2023-05-14T02:42:25.750Z,7.1
2023-05-14T02:43:25.737Z,7.1
2023-05-14T02:44:25.744Z,7.1
2023-05-14T02:45:25.743Z,7.1
2023-05-14T02:46:25.794Z,7
2023-05-14T02:47:25.758Z,7
2023-05-14T02:48:25.747Z,7
2023-05-14T02:49:27.705Z,7
2023-05-14T02:50:30.892Z,7
2023-05-14T02:51:25.750Z,7
2023-05-14T02:52:25.748Z,6.9
2023-05-14T02:53:25.786Z,6.9
2023-05-14T02:54:25.750Z,6.9
2023-05-14T02:55:25.743Z,6.8
2023-05-14T02:56:25.746Z,6.8
2023-05-14T02:57:25.746Z,6.8
2023-05-14T02:58:26.455Z,6.8
2023-05-14T02:59:25.766Z,6.8
2023-05-14T03:00:25.926Z,6.8
2023-05-14T03:01:25.768Z,6.7
2023-05-14T03:02:25.804Z,6.7
2023-05-14T03:03:25.835Z,6.7
2023-05-14T03:04:25.743Z,6.7
2023-05-14T03:05:25.750Z,6.7
2023-05-14T03:06:25.751Z,6.7
2023-05-14T03:07:25.756Z,6.6
2023-05-14T03:08:25.770Z,6.6
2023-05-14T03:09:25.748Z,6.6
2023-05-14T03:10:27.808Z,6.6
2023-05-14T03:11:30.967Z,6.6
2023-05-14T03:12:25.741Z,6.6
2023-05-14T03:13:25.761Z,6.6
2023-05-14T03:14:25.741Z,6.6
2023-05-14T03:15:25.741Z,6.6
2023-05-14T03:16:25.795Z,6.6
2023-05-14T03:17:25.806Z,6.6
2023-05-14T03:18:25.758Z,6.6
2023-05-14T03:19:25.759Z,6.6
2023-05-14T03:20:25.856Z,6.6
2023-05-14T03:21:25.741Z,6.6
2023-05-14T03:22:25.749Z,6.6
2023-05-14T03:23:25.757Z,6.6
2023-05-14T03:24:25.768Z,6.6
2023-05-14T03:25:25.754Z,6.6
2023-05-14T03:26:25.749Z,6.6
2023-05-14T03:27:25.747Z,6.6
2023-05-14T03:28:25.746Z,6.6
2023-05-14T03:29:25.768Z,6.6
2023-05-14T03:30:26.014Z,6.6
2023-05-14T03:31:28.021Z,6.6
2023-05-14T03:32:31.070Z,6.5
2023-05-14T03:33:25.737Z,6.5
2023-05-14T03:34:25.742Z,6.5
2023-05-14T03:35:25.748Z,6.5
2023-05-14T03:36:25.785Z,6.5
2023-05-14T03:37:25.749Z,6.5
2023-05-14T03:38:25.976Z,6.5
2023-05-14T03:39:25.740Z,6.5
2023-05-14T03:40:25.828Z,6.4
2023-05-14T03:41:25.749Z,6.4
2023-05-14T03:42:25.870Z,6.5
2023-05-14T03:43:25.755Z,6.4
2023-05-14T03:44:25.764Z,6.5
2023-05-14T03:45:25.743Z,6.4
2023-05-14T03:46:25.740Z,6.4
2023-05-14T03:47:25.774Z,6.4
2023-05-14T03:48:25.847Z,6.4
2023-05-14T03:49:25.745Z,6.4
2023-05-14T03:50:25.962Z,6.4
2023-05-14T03:51:25.746Z,6.4
2023-05-14T03:52:25.748Z,6.4
2023-05-14T03:53:28.097Z,6.4
2023-05-14T03:54:31.719Z,6.4
2023-05-14T03:55:25.748Z,6.4
2023-05-14T03:56:25.752Z,6.4
2023-05-14T03:57:25.742Z,6.4
2023-05-14T03:58:25.743Z,6.4
2023-05-14T03:59:25.736Z,6.4
2023-05-14T04:00:25.959Z,6.4
2023-05-14T04:01:25.746Z,6.5
2023-05-14T04:02:25.840Z,6.5
2023-05-14T04:03:25.838Z,6.5
2023-05-14T04:04:25.800Z,6.5
2023-05-14T04:05:25.748Z,6.5
2023-05-14T04:06:25.744Z,6.5
2023-05-14T04:07:25.752Z,6.6
2023-05-14T04:08:25.744Z,6.6
2023-05-14T04:09:25.757Z,6.6
2023-05-14T04:10:25.840Z,6.6
2023-05-14T04:11:25.746Z,6.6
2023-05-14T04:12:25.736Z,6.6
2023-05-14T04:13:25.844Z,6.6
2023-05-14T04:14:28.784Z,6.6
2023-05-14T04:15:31.841Z,6.6
2023-05-14T04:16:25.747Z,6.6
2023-05-14T04:17:25.777Z,6.6
2023-05-14T04:18:25.797Z,6.6
2023-05-14T04:19:25.764Z,6.6
2023-05-14T04:20:25.884Z,6.6
2023-05-14T04:21:25.748Z,6.7
2023-05-14T04:22:25.743Z,6.7
2023-05-14T04:23:25.746Z,6.7
2023-05-14T04:24:25.746Z,6.7
2023-05-14T04:25:25.732Z,6.7
2023-05-14T04:26:25.749Z,6.7
2023-05-14T04:27:25.747Z,6.7
2023-05-14T04:28:25.764Z,6.8
2023-05-14T04:29:25.739Z,6.8
2023-05-14T04:30:25.850Z,6.8
2023-05-14T04:31:25.752Z,6.8
2023-05-14T04:32:25.753Z,6.9
2023-05-14T04:33:25.743Z,6.9
2023-05-14T04:34:26.110Z,6.9
2023-05-14T04:35:28.912Z,6.9
2023-05-14T04:36:31.903Z,7
2023-05-14T04:37:25.735Z,7
2023-05-14T04:38:25.736Z,7.1
2023-05-14T04:39:25.748Z,7.1
2023-05-14T04:40:25.905Z,7.2
2023-05-14T04:41:25.746Z,7.2
2023-05-14T04:42:25.754Z,7.2
2023-05-14T04:43:25.740Z,7.2
2023-05-14T04:44:25.733Z,7.3
2023-05-14T04:45:25.755Z,7.4
2023-05-14T04:46:25.754Z,7.5
2023-05-14T04:47:25.751Z,7.6
2023-05-14T04:48:25.742Z,7.8
2023-05-14T04:49:25.746Z,8
2023-05-14T04:50:25.927Z,8.2
2023-05-14T04:51:25.739Z,8.4
2023-05-14T04:52:25.744Z,8.6
2023-05-14T04:53:25.740Z,8.8
2023-05-14T04:54:25.766Z,9
2023-05-14T04:55:25.988Z,9
2023-05-14T04:56:28.882Z,9
2023-05-14T04:57:32.032Z,9.2
2023-05-14T04:58:25.755Z,9.4
2023-05-14T04:59:25.742Z,9.5
2023-05-14T05:00:25.967Z,9.7
2023-05-14T05:01:25.770Z,9.8
2023-05-14T05:02:25.792Z,9.8
2023-05-14T05:03:25.829Z,9.9
2023-05-14T05:04:25.744Z,9.9
2023-05-14T05:05:25.741Z,10
2023-05-14T05:06:25.815Z,10
2023-05-14T05:07:25.738Z,10
2023-05-14T05:08:25.757Z,10.1
2023-05-14T05:09:25.739Z,10.1
2023-05-14T05:10:25.963Z,10.1
2023-05-14T05:11:25.738Z,10.1
2023-05-14T05:12:25.749Z,10.1
2023-05-14T05:13:25.742Z,10.1
2023-05-14T05:14:25.741Z,10.2
2023-05-14T05:15:26.642Z,10.1
2023-05-14T05:16:26.169Z,10.1
2023-05-14T05:17:29.112Z,10.1
2023-05-14T05:18:32.168Z,10.1
2023-05-14T05:19:32.461Z,10.1
2023-05-14T05:20:25.796Z,10
2023-05-14T05:21:25.741Z,10
2023-05-14T05:22:25.742Z,10
2023-05-14T05:23:25.747Z,10
2023-05-14T05:24:25.750Z,10
2023-05-14T05:25:25.749Z,10
2023-05-14T05:26:25.743Z,10
2023-05-14T05:27:25.932Z,10
2023-05-14T05:28:25.749Z,10
2023-05-14T05:29:25.747Z,10.1
2023-05-14T05:30:25.970Z,10.1
2023-05-14T05:31:25.792Z,10.1
2023-05-14T05:32:25.784Z,10.1
2023-05-14T05:33:25.748Z,10.1
2023-05-14T05:34:25.750Z,10.1
2023-05-14T05:35:25.756Z,10.1
2023-05-14T05:36:25.748Z,10.2
2023-05-14T05:37:26.144Z,10.2
2023-05-14T05:38:29.131Z,10.2
2023-05-14T05:39:32.162Z,10.3
2023-05-14T05:40:25.842Z,10.3
2023-05-14T05:41:25.745Z,10.4
2023-05-14T05:42:25.750Z,10.4
2023-05-14T05:43:25.739Z,10.5
2023-05-14T05:44:25.769Z,10.5
2023-05-14T05:45:25.740Z,10.6
2023-05-14T05:46:25.757Z,10.6
2023-05-14T05:47:25.823Z,10.6
2023-05-14T05:48:25.748Z,10.7
2023-05-14T05:49:25.741Z,10.8
2023-05-14T05:50:25.855Z,10.8
2023-05-14T05:51:25.742Z,10.9
2023-05-14T05:52:25.750Z,11
2023-05-14T05:53:25.749Z,11
2023-05-14T05:54:25.754Z,11.1
2023-05-14T05:55:25.764Z,11.2
2023-05-14T05:56:25.738Z,11.3
2023-05-14T05:57:26.396Z,11.4
2023-05-14T05:58:26.269Z,11.4
2023-05-14T05:59:29.234Z,11.5
2023-05-14T06:00:32.288Z,11.6
2023-05-14T06:01:25.744Z,11.7
2023-05-14T06:02:25.820Z,11.9
2023-05-14T06:03:25.799Z,12.1
2023-05-14T06:04:25.739Z,12.2
2023-05-14T06:05:25.804Z,12.5
2023-05-14T06:06:25.741Z,12.6
2023-05-14T06:07:25.746Z,12.8
2023-05-14T06:08:25.750Z,13
2023-05-14T06:09:25.748Z,13.1
2023-05-14T06:10:25.846Z,13.2
2023-05-14T06:11:25.744Z,13.3
2023-05-14T06:12:25.742Z,13.4
2023-05-14T06:13:25.746Z,13.4
2023-05-14T06:14:25.749Z,13.4
2023-05-14T06:15:25.752Z,13.4
2023-05-14T06:16:25.781Z,13.4
2023-05-14T06:17:25.830Z,13.4
2023-05-14T06:18:25.765Z,13.5
2023-05-14T06:19:26.391Z,13.5
2023-05-14T06:20:29.310Z,13.5
2023-05-14T06:21:32.283Z,13.4
2023-05-14T06:22:25.744Z,13.4
2023-05-14T06:23:25.754Z,13.4
2023-05-14T06:24:25.739Z,13.4
2023-05-14T06:25:25.738Z,13.4
2023-05-14T06:26:25.750Z,13.4
2023-05-14T06:27:25.752Z,13.3
2023-05-14T06:28:25.747Z,13.3
2023-05-14T06:29:25.742Z,13.3
2023-05-14T06:30:25.978Z,13.3
2023-05-14T06:31:25.775Z,13.3
2023-05-14T06:32:25.778Z,13.2
2023-05-14T06:33:25.749Z,13.2
2023-05-14T06:34:25.745Z,13.2
2023-05-14T06:35:25.738Z,13.1
2023-05-14T06:36:25.750Z,13.1
2023-05-14T06:37:25.745Z,13.1
2023-05-14T06:38:25.747Z,13.1
2023-05-14T06:39:25.739Z,13.1
2023-05-14T06:40:26.420Z,13.1
2023-05-14T06:41:29.383Z,13
2023-05-14T06:42:32.529Z,13
2023-05-14T06:43:25.748Z,12.9
2023-05-14T06:44:25.767Z,12.9
2023-05-14T06:45:25.739Z,12.9
2023-05-14T06:46:25.743Z,12.8
2023-05-14T06:47:25.776Z,12.9
2023-05-14T06:48:25.796Z,12.8
2023-05-14T06:49:25.779Z,12.8
2023-05-14T06:50:25.870Z,12.8
2023-05-14T06:51:25.737Z,12.8
2023-05-14T06:52:25.757Z,12.8
2023-05-14T06:53:25.743Z,12.8
2023-05-14T06:54:25.755Z,12.8
2023-05-14T06:55:25.738Z,12.8
2023-05-14T06:56:25.738Z,12.8
2023-05-14T06:57:25.734Z,12.9
2023-05-14T06:58:25.758Z,12.9
2023-05-14T06:59:25.741Z,12.9
2023-05-14T07:00:26.017Z,12.9
2023-05-14T07:01:25.747Z,13
2023-05-14T07:02:26.798Z,13
2023-05-14T07:03:29.913Z,13
2023-05-14T07:04:32.664Z,13
2023-05-14T07:06:25.745Z,13.1
2023-05-14T07:07:25.777Z,13.1
2023-05-14T07:08:25.738Z,13.1
2023-05-14T07:09:25.743Z,13.1
2023-05-14T07:10:25.926Z,13.1
2023-05-14T07:11:25.746Z,13.1
2023-05-14T07:12:25.740Z,13.1
2023-05-14T07:13:27.668Z,13.1
2023-05-14T07:14:25.757Z,13.1
2023-05-14T07:15:25.757Z,13.2
2023-05-14T07:16:25.742Z,13.2
2023-05-14T07:17:25.808Z,13.2
2023-05-14T07:18:25.795Z,13.2
2023-05-14T07:19:25.750Z,13.3
2023-05-14T07:20:26.004Z,13.3
2023-05-14T07:21:25.736Z,13.3
2023-05-14T07:22:25.736Z,13.4
2023-05-14T07:23:26.823Z,13.4
2023-05-14T07:24:29.996Z,13.4
2023-05-14T07:25:32.807Z,13.4
2023-05-14T07:26:25.737Z,13.5
2023-05-14T07:27:25.746Z,13.5
2023-05-14T07:28:25.745Z,13.5
2023-05-14T07:29:25.740Z,13.5
2023-05-14T07:30:25.979Z,13.5
2023-05-14T07:31:25.756Z,13.5
2023-05-14T07:32:25.773Z,13.5
2023-05-14T07:33:25.739Z,13.6
2023-05-14T07:34:25.742Z,13.6
2023-05-14T07:35:25.744Z,13.6
2023-05-14T07:36:25.753Z,13.7
2023-05-14T07:37:25.750Z,13.7
2023-05-14T07:38:25.748Z,13.8
2023-05-14T07:39:25.791Z,13.8
2023-05-14T07:40:25.908Z,13.9
2023-05-14T07:41:25.742Z,13.9
2023-05-14T07:42:34.888Z,14
2023-05-14T07:43:25.744Z,14.1
2023-05-14T07:44:26.931Z,14.1
2023-05-14T07:45:30.105Z,14.2
2023-05-14T07:46:32.939Z,14.2
2023-05-14T07:47:25.842Z,14.3
2023-05-14T07:48:25.935Z,14.3
2023-05-14T07:49:25.738Z,14.4
2023-05-14T07:50:25.909Z,14.5
2023-05-14T07:51:25.744Z,14.5
2023-05-14T07:52:25.774Z,14.6
2023-05-14T07:53:25.740Z,14.7
2023-05-14T07:54:25.738Z,14.7
2023-05-14T07:55:25.740Z,14.8
2023-05-14T07:56:25.739Z,14.9
2023-05-14T07:57:25.744Z,14.9
2023-05-14T07:58:25.748Z,15
2023-05-14T07:59:25.743Z,15.1
2023-05-14T08:00:26.020Z,15.2
2023-05-14T08:01:25.739Z,15.2
2023-05-14T08:02:25.751Z,15.3
2023-05-14T08:03:25.908Z,15.4
2023-05-14T08:04:25.775Z,15.4
2023-05-14T08:05:26.978Z,15.4
2023-05-14T08:06:29.981Z,15.5
2023-05-14T08:07:32.978Z,15.6
2023-05-14T08:08:25.743Z,15.7
2023-05-14T08:09:25.934Z,15.7
2023-05-14T08:10:26.070Z,15.8
2023-05-14T08:11:25.738Z,15.9
2023-05-14T08:12:25.739Z,15.9
2023-05-14T08:13:25.736Z,16
2023-05-14T08:14:25.746Z,16.1
2023-05-14T08:15:27.674Z,16.1
2023-05-14T08:16:25.761Z,16.2
2023-05-14T08:17:25.757Z,16.3
2023-05-14T08:18:25.761Z,16.3
2023-05-14T08:19:25.741Z,16.3
2023-05-14T08:20:25.983Z,16.4
2023-05-14T08:21:25.742Z,16.5
2023-05-14T08:22:25.747Z,16.5
2023-05-14T08:23:25.738Z,16.5
2023-05-14T08:24:25.739Z,16.6
2023-05-14T08:25:25.745Z,16.6
2023-05-14T08:26:27.066Z,16.6
2023-05-14T08:27:30.077Z,16.6
2023-05-14T08:28:33.049Z,16.6
2023-05-14T08:29:25.752Z,16.7
2023-05-14T08:30:26.097Z,16.7
2023-05-14T08:31:25.774Z,16.7
2023-05-14T08:32:25.750Z,16.8
2023-05-14T08:33:25.748Z,16.8
2023-05-14T08:34:25.757Z,16.8
2023-05-14T08:35:25.750Z,16.8
2023-05-14T08:36:25.939Z,16.9
2023-05-14T08:37:25.744Z,16.9
2023-05-14T08:38:25.746Z,16.9
2023-05-14T08:39:25.750Z,16.9
2023-05-14T08:40:25.934Z,17
2023-05-14T08:41:25.748Z,17
2023-05-14T08:42:25.750Z,17.2
2023-05-14T08:43:25.817Z,17.3
2023-05-14T08:44:25.748Z,17.3
2023-05-14T08:45:25.800Z,17.4
2023-05-14T08:46:25.746Z,17.5
2023-05-14T08:47:26.658Z,17.5
2023-05-14T08:48:30.288Z,17.6
2023-05-14T08:49:33.163Z,17.6
2023-05-14T08:50:25.898Z,17.7
2023-05-14T08:51:25.752Z,17.7
2023-05-14T08:52:25.737Z,17.8
2023-05-14T08:53:25.739Z,17.8
2023-05-14T08:54:25.752Z,17.8
2023-05-14T08:55:25.748Z,17.9
2023-05-14T08:56:25.763Z,17.9
2023-05-14T08:57:25.746Z,18
2023-05-14T08:58:25.744Z,18.1
2023-05-14T08:59:25.753Z,18.1
2023-05-14T09:00:25.948Z,18.2
2023-05-14T09:01:25.862Z,18.3
2023-05-14T09:02:25.761Z,18.3
2023-05-14T09:03:25.789Z,18.4
2023-05-14T09:04:25.765Z,18.4
2023-05-14T09:05:25.746Z,18.5
2023-05-14T09:06:25.760Z,18.5
2023-05-14T09:07:25.751Z,18.7
2023-05-14T09:08:27.192Z,18.7
2023-05-14T09:09:30.276Z,18.7
2023-05-14T09:10:33.146Z,18.7
2023-05-14T09:11:25.738Z,18.7
2023-05-14T09:12:25.740Z,18.8
2023-05-14T09:13:27.651Z,18.8
2023-05-14T09:14:25.747Z,18.8
2023-05-14T09:15:25.743Z,18.9
2023-05-14T09:16:25.753Z,18.9
2023-05-14T09:17:25.790Z,19
2023-05-14T09:18:25.776Z,19
2023-05-14T09:19:25.748Z,19
2023-05-14T09:20:26.040Z,19
2023-05-14T09:21:25.739Z,19
2023-05-14T09:22:25.960Z,19.1
2023-05-14T09:23:25.747Z,19.1
2023-05-14T09:24:25.741Z,19.1
2023-05-14T09:25:25.743Z,19.2
2023-05-14T09:26:25.734Z,19.2
2023-05-14T09:27:25.754Z,19.3
2023-05-14T09:28:25.743Z,19.3
2023-05-14T09:29:27.272Z,19.3
2023-05-14T09:30:30.434Z,19.4
2023-05-14T09:31:33.316Z,19.4
2023-05-14T09:32:25.756Z,19.5
2023-05-14T09:33:25.737Z,19.5
2023-05-14T09:34:25.740Z,19.7
2023-05-14T09:35:25.738Z,19.7
2023-05-14T09:36:25.745Z,19.8
2023-05-14T09:37:25.761Z,19.8
2023-05-14T09:38:25.744Z,19.8
2023-05-14T09:39:25.756Z,19.9
2023-05-14T09:40:25.890Z,19.9
2023-05-14T09:41:25.754Z,20
2023-05-14T09:42:25.765Z,20.1
2023-05-14T09:43:25.746Z,20.1
2023-05-14T09:44:25.743Z,20.2
2023-05-14T09:45:25.749Z,20.2
2023-05-14T09:46:25.739Z,20.2
2023-05-14T09:47:25.782Z,20.2
2023-05-14T09:48:25.762Z,20.3
2023-05-14T09:49:25.746Z,20.5
2023-05-14T09:50:26.968Z,20.5
2023-05-14T09:51:30.184Z,20.5
2023-05-14T09:53:25.739Z,20.6
2023-05-14T09:54:25.747Z,20.6
2023-05-14T09:55:25.743Z,20.6
2023-05-14T09:56:25.758Z,20.6
2023-05-14T09:57:25.744Z,20.6
2023-05-14T09:58:25.759Z,20.6
2023-05-14T09:59:25.748Z,20.6
2023-05-14T10:00:25.943Z,20.6
2023-05-14T10:01:25.779Z,20.6
2023-05-14T10:02:25.774Z,20.6
2023-05-14T10:03:25.764Z,20.5
2023-05-14T10:04:25.757Z,20.5
2023-05-14T10:05:25.741Z,20.5
2023-05-14T10:06:25.740Z,20.3
2023-05-14T10:07:25.744Z,20.3
2023-05-14T10:08:25.743Z,20.2
2023-05-14T10:09:25.742Z,20.2
2023-05-14T10:10:25.846Z,20.2
2023-05-14T10:11:25.740Z,20.2
2023-05-14T10:12:27.585Z,20.2
2023-05-14T10:13:30.635Z,20.3
2023-05-14T10:14:25.743Z,20.3
2023-05-14T10:15:25.737Z,20.3
2023-05-14T10:16:25.801Z,20.5
2023-05-14T10:17:25.950Z,20.5
2023-05-14T10:18:25.771Z,20.5
2023-05-14T10:19:25.889Z,20.5
2023-05-14T10:20:26.028Z,20.6
2023-05-14T10:21:25.750Z,20.6
2023-05-14T10:22:25.745Z,20.6
2023-05-14T10:23:25.746Z,20.6
2023-05-14T10:24:25.748Z,20.6
2023-05-14T10:25:25.747Z,20.6
2023-05-14T10:26:25.740Z,20.6
2023-05-14T10:27:25.748Z,20.7
2023-05-14T10:28:25.738Z,20.8
2023-05-14T10:29:25.738Z,20.8
2023-05-14T10:30:26.002Z,20.9
2023-05-14T10:31:25.764Z,20.9
2023-05-14T10:32:25.784Z,21
2023-05-14T10:33:27.775Z,21
2023-05-14T10:34:30.782Z,21
2023-05-14T10:36:25.762Z,21.2
2023-05-14T10:37:25.761Z,21.2
2023-05-14T10:38:25.741Z,21.3
2023-05-14T10:39:25.749Z,21.3
2023-05-14T10:40:25.864Z,21.3
2023-05-14T10:41:25.761Z,21.3
2023-05-14T10:42:25.762Z,21.3
2023-05-14T10:43:25.744Z,21.4
2023-05-14T10:44:25.739Z,21.4
2023-05-14T10:45:25.741Z,21.4
2023-05-14T10:46:25.772Z,21.4
2023-05-14T10:47:25.749Z,21.4
2023-05-14T10:48:25.739Z,21.3
2023-05-14T10:49:36.277Z,21.2
2023-05-14T10:50:25.929Z,21
2023-05-14T10:51:25.799Z,20.9
2023-05-14T10:52:25.735Z,20.9
2023-05-14T10:53:25.759Z,20.8
2023-05-14T10:54:27.851Z,20.8
2023-05-14T10:55:30.906Z,20.7
2023-05-14T10:56:25.749Z,20.7
2023-05-14T10:57:25.764Z,20.7
2023-05-14T10:58:25.733Z,20.7
2023-05-14T10:59:25.739Z,20.7
2023-05-14T11:00:25.908Z,20.7
2023-05-14T11:01:25.777Z,20.8
2023-05-14T11:02:25.768Z,20.7
2023-05-14T11:03:25.751Z,20.7
2023-05-14T11:04:25.743Z,20.8
2023-05-14T11:05:25.738Z,20.8
2023-05-14T11:06:25.741Z,20.8
2023-05-14T11:07:25.753Z,20.7
2023-05-14T11:08:27.061Z,20.8
2023-05-14T11:09:25.738Z,20.8
2023-05-14T11:10:25.906Z,20.8
2023-05-14T11:11:25.747Z,20.8
2023-05-14T11:12:25.844Z,20.8
2023-05-14T11:13:25.758Z,20.8
2023-05-14T11:14:25.752Z,20.8
2023-05-14T11:15:27.910Z,20.8
2023-05-14T11:16:30.957Z,20.7
2023-05-14T11:17:25.761Z,20.7
2023-05-14T11:18:25.799Z,20.7
2023-05-14T11:19:25.747Z,20.6
2023-05-14T11:20:25.974Z,20.7
2023-05-14T11:21:25.761Z,20.7
2023-05-14T11:22:25.867Z,20.8
2023-05-14T11:24:25.748Z,20.8
2023-05-14T11:25:25.752Z,20.8
2023-05-14T11:26:25.801Z,20.8
2023-05-14T11:27:25.747Z,20.8
2023-05-14T11:28:25.739Z,20.7
2023-05-14T11:29:25.749Z,20.7
2023-05-14T11:30:25.913Z,20.6
2023-05-14T11:31:25.757Z,20.5
2023-05-14T11:32:25.770Z,20.5
2023-05-14T11:33:25.739Z,20.5
2023-05-14T11:34:25.738Z,20.6
2023-05-14T11:35:25.751Z,20.6
2023-05-14T11:36:28.048Z,20.6
2023-05-14T11:37:31.077Z,20.6
2023-05-14T11:38:25.766Z,20.6
2023-05-14T11:39:25.744Z,20.6
2023-05-14T11:40:25.835Z,20.6
2023-05-14T11:41:25.749Z,20.6
2023-05-14T11:42:25.754Z,20.6
2023-05-14T11:43:25.963Z,20.6
2023-05-14T11:44:25.739Z,20.6
2023-05-14T11:45:25.747Z,20.5
2023-05-14T11:46:25.824Z,20.5
2023-05-14T11:47:25.765Z,20.5
2023-05-14T11:48:25.761Z,20.5
2023-05-14T11:49:25.771Z,20.5
2023-05-14T11:50:25.889Z,20.3
2023-05-14T11:51:25.744Z,20.3
2023-05-14T11:52:25.749Z,20.3
2023-05-14T11:53:25.759Z,20.3
2023-05-14T11:54:25.747Z,20.2
2023-05-14T11:55:25.738Z,20.2
2023-05-14T11:56:25.740Z,20.2
2023-05-14T11:57:28.084Z,20.2
2023-05-14T11:58:31.113Z,20.1
2023-05-14T11:59:25.765Z,20.1
2023-05-14T12:00:25.896Z,20.1
2023-05-14T12:01:25.738Z,20.1
2023-05-14T12:02:25.797Z,20.1
2023-05-14T12:03:26.088Z,20.1
2023-05-14T12:04:25.769Z,20.1
2023-05-14T12:05:25.743Z,20.1
2023-05-14T12:06:25.764Z,20.1
2023-05-14T12:07:25.744Z,20.1
2023-05-14T12:08:25.736Z,20.2
2023-05-14T12:09:25.733Z,20.2
2023-05-14T12:10:25.927Z,20.2
2023-05-14T12:11:25.764Z,20.2
2023-05-14T12:12:25.744Z,20.2
2023-05-14T12:13:25.755Z,20.2
2023-05-14T12:14:25.743Z,20.2
2023-05-14T12:15:25.747Z,20.2
2023-05-14T12:16:25.843Z,20.2
2023-05-14T12:17:25.771Z,20.2
2023-05-14T12:18:28.322Z,20.2
2023-05-14T12:19:31.467Z,20.3
2023-05-14T12:20:25.852Z,20.3
2023-05-14T12:21:25.736Z,20.3
2023-05-14T12:22:25.740Z,20.3
2023-05-14T12:23:25.747Z,20.5
2023-05-14T12:24:25.740Z,20.5
2023-05-14T12:25:25.745Z,20.5
2023-05-14T12:26:25.766Z,20.5
2023-05-14T12:27:25.735Z,20.5
2023-05-14T12:28:25.760Z,20.6
2023-05-14T12:29:25.744Z,20.6
2023-05-14T12:30:25.755Z,20.7
2023-05-14T12:31:25.776Z,20.7
2023-05-14T12:32:25.766Z,20.8
2023-05-14T12:33:25.737Z,20.9
2023-05-14T12:34:25.732Z,20.9
2023-05-14T12:35:26.073Z,21
2023-05-14T12:36:25.744Z,21.2
2023-05-14T12:37:25.739Z,21.2
2023-05-14T12:38:25.739Z,21.2
2023-05-14T12:39:28.234Z,21.2
2023-05-14T12:40:31.254Z,21.2
2023-05-14T12:41:25.761Z,21.2
2023-05-14T12:42:25.747Z,21.2
2023-05-14T12:43:25.748Z,21.2
2023-05-14T12:44:25.739Z,21.2
2023-05-14T12:45:25.884Z,21.2
2023-05-14T12:46:25.769Z,21.2
2023-05-14T12:47:25.836Z,21.2
2023-05-14T12:48:25.747Z,21.2
2023-05-14T12:49:25.747Z,21.3
2023-05-14T12:50:25.913Z,21.4
2023-05-14T12:51:25.783Z,21.4
2023-05-14T12:52:36.551Z,21.5
2023-05-14T12:53:25.738Z,21.6
2023-05-14T12:54:25.744Z,21.6
2023-05-14T12:55:25.743Z,21.8
2023-05-14T12:56:25.960Z,21.8
2023-05-14T12:57:25.758Z,21.8
2023-05-14T12:58:25.739Z,21.9
2023-05-14T12:59:25.739Z,21.9
2023-05-14T13:00:27.883Z,21.9
2023-05-14T13:01:31.404Z,21.9
2023-05-14T13:02:25.750Z,21.9
2023-05-14T13:03:25.750Z,21.9
2023-05-14T13:04:25.764Z,21.9
2023-05-14T13:05:25.860Z,22
2023-05-14T13:06:25.739Z,21.9
2023-05-14T13:07:25.751Z,22
2023-05-14T13:08:25.744Z,22
2023-05-14T13:09:25.738Z,22
2023-05-14T13:10:25.750Z,22
2023-05-14T13:11:25.742Z,22
2023-05-14T13:12:25.750Z,22
2023-05-14T13:13:25.747Z,22
2023-05-14T13:14:25.739Z,22
2023-05-14T13:15:25.886Z,22
2023-05-14T13:16:25.801Z,21.9
2023-05-14T13:17:25.754Z,21.9
2023-05-14T13:18:25.803Z,21.9
2023-05-14T13:19:25.737Z,21.9
2023-05-14T13:20:25.745Z,21.9
2023-05-14T13:21:26.141Z,21.9
2023-05-14T13:22:28.656Z,21.9
2023-05-14T13:23:31.574Z,21.9
2023-05-14T13:24:25.844Z,21.9
2023-05-14T13:25:25.924Z,21.9
2023-05-14T13:26:25.758Z,21.9
2023-05-14T13:27:25.748Z,21.9
2023-05-14T13:28:25.740Z,22
2023-05-14T13:29:25.746Z,22
2023-05-14T13:30:25.742Z,22
2023-05-14T13:31:25.835Z,22
2023-05-14T13:32:25.833Z,22
2023-05-14T13:33:25.739Z,22.1
2023-05-14T13:34:25.788Z,22.1
2023-05-14T13:35:25.901Z,22.1
2023-05-14T13:36:25.763Z,22.1
2023-05-14T13:37:25.758Z,22.1
2023-05-14T13:38:25.737Z,22.3
2023-05-14T13:39:25.742Z,22.3
2023-05-14T13:40:25.739Z,22.3